Wickett, Texas
Current Conditions -  °F | °C
As of 9:53 PM on Friday 24 Oct 2014 (Local Time) from KINK Reporting Station
Clear Clear  
Wind Chill: 70°   Ceiling: Unl
Heat Index: 70°   Visibility: 10mi
Dew Point: 51°   Wind: 7mph
Humidity: 51%   Direction: 110°ESE
Pressure: 30.13"   Gusts: NA
Location:  31.57°N, 103°W
Report Text: KINK 250253Z AUTO 11006KT 10SM CLR 21/11 A3013 RMK AO2 SLP173 T02110106 51012
Loading
Personal Weather Stations






























Interactive Weather Map
Tropical Storm Tracking
New forecast layout! Learn more

10-Day Weather Forecast

Advertisements
Track Severe Weather on mobile